createdAt,value
2023-02-12T00:02:35.779Z,25.57
2023-02-12T00:07:38.485Z,25.53
2023-02-12T00:12:42.539Z,25.47
2023-02-12T00:17:45.212Z,24.47
2023-02-12T00:22:47.831Z,25.97
2023-02-12T00:27:51.783Z,26.70
2023-02-12T00:32:54.641Z,25.63
2023-02-12T00:37:57.259Z,26.53
2023-02-12T00:43:01.198Z,26.80
2023-02-12T00:48:03.937Z,27.10
2023-02-12T00:53:06.661Z,27.70
2023-02-12T00:58:11.175Z,27.57
2023-02-12T01:03:13.848Z,28.10
2023-02-12T01:08:17.599Z,26.87
2023-02-12T01:13:21.561Z,27.20
2023-02-12T01:18:24.212Z,28.77
2023-02-12T01:23:26.961Z,27.77
2023-02-12T01:28:31.024Z,26.63
2023-02-12T01:33:33.693Z,26.90
2023-02-12T01:38:36.412Z,25.83
2023-02-12T01:43:40.787Z,25.60
2023-02-12T01:48:46.100Z,27.30
2023-02-12T01:53:53.331Z,27.63
2023-02-12T01:58:57.938Z,26.60
2023-02-12T02:04:04.280Z,26.33
2023-02-12T02:09:07.446Z,24.70
2023-02-12T02:14:28.870Z,26.40
2023-02-12T02:19:47.037Z,25.17
2023-02-12T02:25:24.374Z,26.70
2023-02-12T02:30:35.347Z,27.33
2023-02-12T02:35:42.449Z,28.17
2023-02-12T02:40:51.727Z,28.03
2023-02-12T02:46:03.304Z,28.57
2023-02-12T02:51:10.386Z,27.40
2023-02-12T02:56:16.822Z,27.60
2023-02-12T03:01:24.896Z,28.17
2023-02-12T03:06:33.522Z,28.33
2023-02-12T03:11:37.247Z,30.23
2023-02-12T03:16:45.299Z,30.63
2023-02-12T03:21:51.014Z,28.53
2023-02-12T03:26:59.129Z,27.43
2023-02-12T03:32:18.143Z,27.83
2023-02-12T03:37:29.335Z,29.67
2023-02-12T03:42:37.218Z,28.40
2023-02-12T03:47:47.031Z,26.80
2023-02-12T03:52:51.378Z,27.73
2023-02-12T03:58:00.833Z,27.80
2023-02-12T04:03:05.674Z,29.03
2023-02-12T04:08:12.594Z,30.37
2023-02-12T04:13:22.453Z,29.67
2023-02-12T04:18:34.224Z,29.30
2023-02-12T04:23:51.196Z,29.53
2023-02-12T04:29:06.219Z,30.67
2023-02-12T04:34:15.351Z,31.60
2023-02-12T04:39:22.724Z,30.87
2023-02-12T04:44:27.408Z,32.53
2023-02-12T04:49:31.646Z,31.93
2023-02-12T04:54:34.387Z,33.00
2023-02-12T04:59:37.024Z,30.93
2023-02-12T05:04:41.231Z,33.97
2023-02-12T05:09:46.682Z,32.20
2023-02-12T05:14:49.355Z,32.00
2023-02-12T05:19:53.376Z,33.00
2023-02-12T05:24:56.014Z,33.53
2023-02-12T05:29:58.697Z,32.83
2023-02-12T05:35:02.714Z,33.00
2023-02-12T05:40:06.967Z,33.93
2023-02-12T05:45:10.221Z,31.33
2023-02-12T05:50:14.223Z,32.73
2023-02-12T05:55:18.953Z,34.33
2023-02-12T06:00:22.510Z,33.10
2023-02-12T06:05:26.481Z,31.47
2023-02-12T06:10:29.102Z,31.50
2023-02-12T06:15:32.215Z,29.23
2023-02-12T06:20:36.192Z,29.83
2023-02-12T06:25:38.847Z,30.03
2023-02-12T06:30:41.552Z,30.17
2023-02-12T06:35:45.680Z,30.00
2023-02-12T06:40:48.414Z,29.93
2023-02-12T06:45:51.060Z,28.90
2023-02-12T06:50:55.025Z,29.63
2023-02-12T06:55:57.819Z,28.57
2023-02-12T07:01:10.641Z,26.57
2023-02-12T07:06:14.866Z,27.03
2023-02-12T07:11:17.902Z,27.70
2023-02-12T07:16:21.081Z,25.23
2023-02-12T07:21:25.209Z,24.73
2023-02-12T07:26:27.906Z,24.80
2023-02-12T07:31:30.683Z,26.40
2023-02-12T07:36:35.105Z,26.53
2023-02-12T07:41:38.018Z,25.27
2023-02-12T07:46:44.529Z,22.93
2023-02-12T07:51:51.243Z,23.30
2023-02-12T07:56:53.929Z,25.40
2023-02-12T08:01:58.304Z,25.07
2023-02-12T08:07:02.851Z,25.63
2023-02-12T08:12:08.327Z,25.50
2023-02-12T08:17:11.172Z,24.83
2023-02-12T08:22:56.879Z,24.83
2023-02-12T08:41:12.895Z,23.90
2023-02-12T08:46:56.207Z,24.37
2023-02-12T08:52:25.762Z,24.03
2023-02-12T08:57:29.766Z,21.73
2023-02-12T09:02:33.167Z,23.70
2023-02-12T09:07:35.811Z,21.47
2023-02-12T09:12:39.800Z,21.13
2023-02-12T09:17:43.718Z,20.47
2023-02-12T09:22:46.514Z,22.50
2023-02-12T09:27:50.511Z,19.90
2023-02-12T09:32:53.208Z,20.07
2023-02-12T09:37:55.831Z,19.73
2023-02-12T09:43:12.842Z,19.57
2023-02-12T09:48:39.176Z,19.27
2023-02-12T09:53:46.740Z,18.63
2023-02-12T09:58:54.002Z,17.67
2023-02-12T10:03:57.461Z,21.63
2023-02-12T10:09:11.634Z,14.87
2023-02-12T10:14:31.390Z,16.43
2023-02-12T10:20:05.033Z,13.53
2023-02-12T10:25:22.485Z,12.13
2023-02-12T10:30:32.220Z,12.10
2023-02-12T10:35:36.417Z,11.80
2023-02-12T10:40:44.143Z,10.33
2023-02-12T10:45:48.881Z,10.27
2023-02-12T10:51:03.544Z,10.83
2023-02-12T10:56:17.255Z,11.87
2023-02-12T11:01:26.121Z,9.60
2023-02-12T11:06:31.083Z,9.33
2023-02-12T11:11:39.626Z,9.80
2023-02-12T11:16:53.003Z,9.23
2023-02-12T11:22:08.220Z,8.40
2023-02-12T11:27:30.569Z,7.93
2023-02-12T11:32:34.549Z,7.30
2023-02-12T11:37:42.705Z,6.53
2023-02-12T11:42:50.492Z,6.67
2023-02-12T11:47:54.538Z,6.30
2023-02-12T11:53:01.335Z,5.57
2023-02-12T11:58:06.717Z,6.23
2023-02-12T12:03:16.134Z,6.47
2023-02-12T12:08:25.672Z,6.30
2023-02-12T12:13:34.777Z,5.47
2023-02-12T12:19:03.627Z,6.17
2023-02-12T12:24:12.265Z,6.43
2023-02-12T12:29:20.780Z,6.97
2023-02-12T12:34:26.322Z,6.30
2023-02-12T12:39:33.913Z,5.93
2023-02-12T12:44:55.993Z,6.67
2023-02-12T12:50:19.869Z,5.30
2023-02-12T12:55:39.541Z,9.93
2023-02-12T13:01:06.989Z,9.80
2023-02-12T13:06:27.476Z,5.93
2023-02-12T13:11:39.920Z,5.17
2023-02-12T13:16:49.057Z,5.80
2023-02-12T13:21:59.388Z,5.97
2023-02-12T13:27:06.130Z,6.30
2023-02-12T13:32:16.615Z,7.03
2023-02-12T13:37:32.755Z,7.20
2023-02-12T13:42:45.828Z,7.30
2023-02-12T13:47:59.899Z,6.63
2023-02-12T13:53:16.206Z,6.90
2023-02-12T13:58:56.049Z,6.87
2023-02-12T14:04:16.508Z,7.37
2023-02-12T14:09:23.830Z,6.60
2023-02-12T14:14:29.006Z,6.97
2023-02-12T14:19:39.527Z,5.17
2023-02-12T14:24:53.277Z,4.40
2023-02-12T14:30:05.480Z,4.63
2023-02-12T14:35:33.945Z,4.80
2023-02-12T14:40:44.108Z,5.20
2023-02-12T14:45:46.790Z,5.17
2023-02-12T14:50:52.212Z,4.73
2023-02-12T14:55:57.957Z,5.40
2023-02-12T15:01:03.952Z,5.50
2023-02-12T15:06:14.148Z,5.13
2023-02-12T15:11:25.918Z,6.17
2023-02-12T15:16:35.691Z,5.83
2023-02-12T15:21:39.096Z,6.00
2023-02-12T15:26:45.953Z,6.53
2023-02-12T15:31:53.918Z,6.30
2023-02-12T15:37:00.872Z,6.83
2023-02-12T15:42:05.030Z,6.83
2023-02-12T15:47:14.489Z,7.77
2023-02-12T15:52:20.655Z,7.70
2023-02-12T15:57:25.806Z,11.53
2023-02-12T16:02:30.980Z,9.70
2023-02-12T16:07:39.515Z,8.30
2023-02-12T16:12:43.552Z,8.43
2023-02-12T16:17:49.137Z,8.40
2023-02-12T16:22:52.804Z,8.17
2023-02-12T16:28:01.238Z,8.43
2023-02-12T16:33:04.013Z,9.83
2023-02-12T16:38:39.969Z,9.77
2023-02-12T16:43:43.952Z,9.20
2023-02-12T16:48:49.403Z,10.10
2023-02-12T16:53:53.973Z,12.57
2023-02-12T16:59:00.606Z,12.87
2023-02-12T17:04:06.744Z,12.60
2023-02-12T17:09:11.112Z,11.97
2023-02-12T17:14:17.075Z,13.03
2023-02-12T17:19:19.844Z,13.47
2023-02-12T17:24:25.145Z,14.33
2023-02-12T17:29:30.596Z,15.40
2023-02-12T17:34:46.578Z,17.00
2023-02-12T17:39:50.918Z,16.77
2023-02-12T17:44:55.046Z,15.57
2023-02-12T17:49:57.774Z,13.83
2023-02-12T17:55:00.448Z,15.87
2023-02-12T18:00:05.365Z,15.33
2023-02-12T18:05:09.110Z,12.73
2023-02-12T18:10:12.804Z,12.70
2023-02-12T18:15:16.809Z,13.67
2023-02-12T18:20:19.641Z,13.20
2023-02-12T18:25:22.376Z,13.67
2023-02-12T18:30:26.517Z,13.37
2023-02-12T18:35:29.437Z,13.03
2023-02-12T18:40:32.151Z,14.57
2023-02-12T18:45:36.194Z,14.10
2023-02-12T18:50:38.889Z,13.97
2023-02-12T18:55:41.570Z,15.40
2023-02-12T19:00:45.563Z,15.33
2023-02-12T19:05:48.548Z,16.00
2023-02-12T19:10:51.415Z,16.60
2023-02-12T19:15:55.468Z,16.27
2023-02-12T21:42:35.451Z,18.83
2023-02-12T21:48:14.630Z,18.30
2023-02-12T21:53:18.811Z,18.13
2023-02-12T21:58:22.835Z,19.57
2023-02-12T22:03:25.815Z,18.07
2023-02-12T22:08:29.895Z,18.33
2023-02-12T22:13:33.128Z,17.93
2023-02-12T22:18:35.900Z,18.40
2023-02-12T22:23:40.288Z,19.90
2023-02-12T22:28:44.451Z,20.23
2023-02-12T22:33:47.270Z,20.07
2023-02-12T22:38:51.581Z,21.70
2023-02-12T22:43:54.864Z,19.57
2023-02-12T22:48:57.620Z,18.63
2023-02-12T22:54:01.834Z,18.77
2023-02-12T22:59:04.519Z,18.73
2023-02-12T23:04:07.293Z,18.50
2023-02-12T23:09:13.608Z,17.20
2023-02-12T23:14:16.461Z,16.03
2023-02-12T23:19:19.155Z,16.90
2023-02-12T23:24:24.532Z,16.97
2023-02-12T23:29:27.193Z,17.60
2023-02-12T23:34:29.893Z,17.17
2023-02-12T23:39:33.848Z,17.77
2023-02-12T23:44:38.715Z,17.47
2023-02-12T23:49:41.465Z,16.97
2023-02-12T23:54:45.449Z,18.17
2023-02-12T23:59:48.111Z,17.87
